createdAt,value
2023-02-11T00:01:31.815Z,102851.78
2023-02-11T00:03:59.829Z,102850.03
2023-02-11T00:06:28.368Z,102852.66
2023-02-11T00:08:56.201Z,102845.69
2023-02-11T00:11:30.322Z,102843.91
2023-02-11T00:13:58.228Z,102839.53
2023-02-11T00:16:26.042Z,102836.03
2023-02-11T00:18:54.134Z,102819.41
2023-02-11T00:21:23.578Z,102819.44
2023-02-11T00:23:51.321Z,102822.91
2023-02-11T00:26:21.031Z,102822.88
2023-02-11T00:28:50.521Z,102817.63
2023-02-11T00:31:18.887Z,102817.59
2023-02-11T00:33:46.821Z,102808.84
2023-02-11T00:36:15.593Z,102794.88
2023-02-11T00:38:43.896Z,102793.16
2023-02-11T00:41:11.683Z,102790.56
2023-02-11T00:43:39.371Z,102789.63
2023-02-11T00:46:08.670Z,102777.41
2023-02-11T00:48:36.472Z,102775.69
2023-02-11T00:51:04.525Z,102784.44
2023-02-11T00:53:32.245Z,102790.56
2023-02-11T00:56:01.033Z,102787.97
2023-02-11T00:58:28.806Z,102793.22
2023-02-11T01:00:56.528Z,102787.97
2023-02-11T01:03:25.644Z,102790.56
2023-02-11T01:05:53.321Z,102786.19
2023-02-11T01:08:21.009Z,102783.56
2023-02-11T01:10:55.327Z,102777.41
2023-02-11T01:13:23.202Z,102775.66
2023-02-11T01:15:51.257Z,102771.25
2023-02-11T01:18:19.077Z,102777.38
2023-02-11T01:20:48.128Z,102777.41
2023-02-11T01:23:15.796Z,102773.00
2023-02-11T01:25:43.451Z,102766.00
2023-02-11T01:28:16.308Z,102770.41
2023-02-11T01:30:44.068Z,102764.28
2023-02-11T01:33:11.808Z,102776.53
2023-02-11T01:35:39.626Z,102782.66
2023-02-11T01:38:08.943Z,102780.94
2023-02-11T01:40:36.616Z,102780.03
2023-02-11T01:43:04.346Z,102777.41
2023-02-11T01:45:54.967Z,102778.28
2023-02-11T01:48:24.531Z,102781.78
2023-02-11T01:50:53.808Z,102781.78
2023-02-11T01:53:40.398Z,102779.16
2023-02-11T01:56:25.636Z,102783.56
2023-02-11T01:58:53.447Z,102780.94
2023-02-11T02:01:23.492Z,102790.50
2023-02-11T02:03:51.197Z,102791.38
2023-02-11T02:06:20.625Z,102777.38
2023-02-11T02:08:52.027Z,102778.28
2023-02-11T02:11:19.701Z,102777.41
2023-02-11T02:13:47.395Z,102769.53
2023-02-11T02:16:16.305Z,102766.06
2023-02-11T02:18:48.672Z,102756.41
2023-02-11T02:21:45.163Z,102762.56
2023-02-11T02:24:49.324Z,102750.28
2023-02-11T02:27:25.905Z,102744.16
2023-02-11T02:30:26.096Z,102744.16
2023-02-11T02:33:23.597Z,102738.88
2023-02-11T02:35:56.340Z,102731.91
2023-02-11T02:38:25.432Z,102731.94
2023-02-11T02:40:56.751Z,102720.56
2023-02-11T02:43:24.573Z,102713.56
2023-02-11T02:45:52.486Z,102710.03
2023-02-11T02:48:28.462Z,102713.53
2023-02-11T02:51:01.324Z,102705.66
2023-02-11T02:53:33.241Z,102710.00
2023-02-11T02:56:02.244Z,102705.59
2023-02-11T02:58:47.871Z,102707.34
2023-02-11T03:01:20.795Z,102704.72
2023-02-11T03:03:53.204Z,102710.84
2023-02-11T03:06:26.261Z,102713.44
2023-02-11T03:08:56.200Z,102719.59
2023-02-11T03:11:23.908Z,102710.84
2023-02-11T03:13:52.766Z,102710.81
2023-02-11T03:16:21.689Z,102699.47
2023-02-11T03:18:51.397Z,102703.84
2023-02-11T03:21:19.114Z,102696.00
2023-02-11T03:23:49.516Z,102684.59
2023-02-11T03:26:19.513Z,102677.56
2023-02-11T03:28:50.644Z,102660.97
2023-02-11T03:31:19.895Z,102660.03
2023-02-11T03:33:56.454Z,102668.75
2023-02-11T03:36:25.376Z,102669.66
2023-02-11T03:38:53.556Z,102690.63
2023-02-11T03:41:22.124Z,102686.25
2023-02-11T03:43:51.064Z,102686.25
2023-02-11T03:46:20.790Z,102685.38
2023-02-11T03:48:49.906Z,102693.25
2023-02-11T03:51:18.975Z,102694.97
2023-02-11T03:53:47.516Z,102704.63
2023-02-11T03:56:16.736Z,102716.88
2023-02-11T03:58:45.415Z,102715.13
2023-02-11T04:01:13.220Z,102709.03
2023-02-11T04:03:41.088Z,102709.03
2023-02-11T04:06:09.156Z,102710.81
2023-02-11T04:08:38.179Z,102710.81
2023-02-11T04:11:05.875Z,102715.22
2023-02-11T04:13:33.535Z,102711.72
2023-02-11T04:16:01.212Z,102714.31
2023-02-11T04:18:28.891Z,102710.81
2023-02-11T04:20:56.544Z,102715.19
2023-02-11T04:23:24.211Z,102719.56
2023-02-11T04:25:53.384Z,102712.59
2023-02-11T04:28:21.213Z,102707.34
2023-02-11T04:30:50.404Z,102700.31
2023-02-11T04:33:18.120Z,102712.59
2023-02-11T04:35:46.036Z,102705.56
2023-02-11T04:38:13.765Z,102715.19
2023-02-11T04:40:41.628Z,102711.72
2023-02-11T04:43:10.657Z,102702.09
2023-02-11T04:45:38.328Z,102707.34
2023-02-11T04:48:06.243Z,102711.72
2023-02-11T04:50:33.929Z,102721.34
2023-02-11T04:53:01.596Z,102718.72
2023-02-11T04:55:29.256Z,102710.84
2023-02-11T04:57:56.940Z,102722.22
2023-02-11T05:00:25.979Z,102709.97
2023-02-11T05:02:53.634Z,102709.13
2023-02-11T05:05:21.294Z,102702.09
2023-02-11T05:07:48.963Z,102698.56
2023-02-11T05:10:16.939Z,102703.81
2023-02-11T05:12:44.739Z,102701.19
2023-02-11T05:15:12.398Z,102693.31
2023-02-11T05:17:41.418Z,102695.09
2023-02-11T05:20:10.311Z,102693.31
2023-02-11T05:22:37.972Z,102688.06
2023-02-11T05:25:06.116Z,102696.84
2023-02-11T05:27:33.812Z,102688.13
2023-02-11T05:30:01.475Z,102683.72
2023-02-11T05:32:29.148Z,102679.41
2023-02-11T05:34:58.220Z,102670.69
2023-02-11T05:37:25.935Z,102668.06
2023-02-11T05:39:53.611Z,102669.84
2023-02-11T05:42:21.669Z,102654.09
2023-02-11T05:44:50.698Z,102658.50
2023-02-11T05:47:18.517Z,102669.88
2023-02-11T05:49:46.184Z,102674.25
2023-02-11T05:52:15.215Z,102680.41
2023-02-11T05:54:43.104Z,102681.28
2023-02-11T05:57:10.767Z,102684.81
2023-02-11T05:59:38.479Z,102683.88
2023-02-11T06:02:07.909Z,102681.25
2023-02-11T06:04:35.575Z,102680.41
2023-02-11T06:07:03.240Z,102688.28
2023-02-11T06:09:32.347Z,102681.28
2023-02-11T06:12:00.005Z,102682.16
2023-02-11T06:14:27.711Z,102692.63
2023-02-11T06:16:55.402Z,102689.13
2023-02-11T06:19:23.065Z,102676.03
2023-02-11T06:21:50.726Z,102683.88
2023-02-11T06:24:38.358Z,102698.75
2023-02-11T06:27:07.449Z,102701.38
2023-02-11T06:29:35.119Z,102697.88
2023-02-11T06:32:02.936Z,102689.13
2023-02-11T06:34:30.680Z,102683.91
2023-02-11T06:36:58.337Z,102688.25
2023-02-11T06:39:26.037Z,102685.63
2023-02-11T06:41:53.683Z,102688.25
2023-02-11T06:44:22.717Z,102688.28
2023-02-11T06:46:50.419Z,102703.16
2023-02-11T06:49:18.505Z,102700.53
2023-02-11T06:51:46.182Z,102703.16
2023-02-11T06:54:14.344Z,102695.25
2023-02-11T06:56:42.377Z,102698.75
2023-02-11T06:59:10.046Z,102705.75
2023-02-11T07:01:39.096Z,102707.47
2023-02-11T07:04:08.113Z,102706.63
2023-02-11T07:06:37.450Z,102704.88
2023-02-11T07:09:05.270Z,102696.16
2023-02-11T07:11:33.042Z,102698.75
2023-02-11T07:14:02.186Z,102704.03
2023-02-11T07:16:30.319Z,102699.63
2023-02-11T07:18:59.381Z,102702.22
2023-02-11T07:21:27.172Z,102707.47
2023-02-11T07:23:54.904Z,102705.69
2023-02-11T07:26:23.640Z,102715.34
2023-02-11T07:28:51.388Z,102718.88
2023-02-11T07:31:21.173Z,102711.88
2023-02-11T07:33:48.964Z,102718.00
2023-02-11T07:36:17.992Z,102733.75
2023-02-11T07:38:45.676Z,102745.97
2023-02-11T07:41:15.111Z,102745.97
2023-02-11T07:43:42.990Z,102745.97
2023-02-11T07:46:12.034Z,102751.22
2023-02-11T07:48:39.712Z,102760.00
2023-02-11T07:51:09.106Z,102756.50
2023-02-11T07:53:38.476Z,102765.28
2023-02-11T07:56:06.975Z,102775.78
2023-02-11T07:58:34.659Z,102779.25
2023-02-11T08:01:03.316Z,102781.88
2023-02-11T08:03:31.055Z,102791.53
2023-02-11T08:05:58.723Z,102799.41
2023-02-11T08:08:27.550Z,102805.50
2023-02-11T08:10:56.614Z,102807.28
2023-02-11T08:13:24.285Z,102809.91
2023-02-11T08:15:52.105Z,102810.81
2023-02-11T08:18:19.964Z,102810.81
2023-02-11T08:20:47.689Z,102818.69
2023-02-11T08:23:15.432Z,102820.44
2023-02-11T08:25:43.171Z,102821.31
2023-02-11T08:28:12.287Z,102828.28
2023-02-11T08:30:40.040Z,102831.78
2023-02-11T08:33:07.710Z,102831.78
2023-02-11T08:35:36.397Z,102837.03
2023-02-11T08:38:04.071Z,102832.69
2023-02-11T08:40:31.743Z,102833.56
2023-02-11T08:42:59.416Z,102842.28
2023-02-11T08:45:28.543Z,102835.28
2023-02-11T08:47:56.254Z,102836.16
2023-02-11T08:50:23.952Z,102827.41
2023-02-11T08:52:52.387Z,102830.00
2023-02-11T08:55:20.179Z,102829.16
2023-02-11T08:57:47.838Z,102824.81
2023-02-11T09:00:16.756Z,102823.94
2023-02-11T09:02:45.801Z,102823.94
2023-02-11T09:05:13.604Z,102832.66
2023-02-11T09:07:41.254Z,102831.78
2023-02-11T09:10:09.517Z,102839.69
2023-02-11T09:12:37.186Z,102848.44
2023-02-11T09:15:05.301Z,102856.31
2023-02-11T09:17:32.962Z,102863.31
2023-02-11T09:20:02.339Z,102860.72
2023-02-11T09:22:30.017Z,102861.59
2023-02-11T09:24:57.854Z,102860.72
2023-02-11T09:27:25.556Z,102853.72
2023-02-11T09:29:53.223Z,102854.56
2023-02-11T09:32:20.874Z,102865.09
2023-02-11T09:34:48.944Z,102870.34
2023-02-11T09:37:17.972Z,102877.34
2023-02-11T09:39:46.186Z,102879.09
2023-02-11T09:42:42.716Z,102877.34
2023-02-11T09:45:15.777Z,102883.47
2023-02-11T09:47:47.819Z,102878.22
2023-02-11T09:50:16.906Z,102877.34
2023-02-11T09:52:48.140Z,102882.59
2023-02-11T09:55:21.337Z,102883.47
2023-02-11T09:57:49.139Z,102885.22
2023-02-11T10:00:19.156Z,102894.84
2023-02-11T10:03:09.997Z,102898.34
2023-02-11T10:05:45.021Z,102887.84
2023-02-11T10:08:17.157Z,102892.25
2023-02-11T10:10:48.905Z,102885.25
2023-02-11T10:13:42.164Z,102882.63
2023-02-11T10:16:15.741Z,102885.28
2023-02-11T10:18:52.045Z,102873.03
2023-02-11T10:21:22.992Z,102862.53
2023-02-11T10:23:53.765Z,102866.03
2023-02-11T10:26:21.469Z,102880.94
2023-02-11T10:28:50.586Z,102887.94
2023-02-11T10:31:19.967Z,102896.63
2023-02-11T10:33:50.376Z,102893.16
2023-02-11T10:36:18.582Z,102892.31
2023-02-11T10:38:46.255Z,102887.94
2023-02-11T10:41:18.508Z,102883.53
2023-02-11T10:43:46.194Z,102889.69
2023-02-11T10:46:17.403Z,102888.81
2023-02-11T10:48:46.526Z,102898.44
2023-02-11T10:51:19.716Z,102910.72
2023-02-11T10:53:47.643Z,102908.94
2023-02-11T10:56:23.206Z,102913.34
2023-02-11T10:58:56.420Z,102913.34
2023-02-11T11:01:25.131Z,102909.81
2023-02-11T11:03:53.311Z,102908.91
2023-02-11T11:06:30.187Z,102901.03
2023-02-11T11:08:57.866Z,102907.19
2023-02-11T11:11:27.119Z,102905.47
2023-02-11T11:13:59.136Z,102921.22
2023-02-11T11:16:27.421Z,102909.84
2023-02-11T11:19:15.377Z,102917.72
2023-02-11T11:21:44.203Z,102914.22
2023-02-11T11:24:17.557Z,102915.97
2023-02-11T11:26:47.317Z,102917.72
2023-02-11T11:29:16.357Z,102919.47
2023-02-11T11:31:48.825Z,102922.97
2023-02-11T11:34:22.483Z,102918.59
2023-02-11T11:36:50.176Z,102915.97
2023-02-11T11:39:23.281Z,102928.22
2023-02-11T11:41:53.755Z,102926.47
2023-02-11T11:44:29.360Z,102929.94
2023-02-11T11:47:29.455Z,102941.28
2023-02-11T11:50:13.055Z,102933.44
2023-02-11T11:52:42.751Z,102937.81
2023-02-11T11:55:15.334Z,102933.44
2023-02-11T11:57:44.375Z,102925.53
2023-02-11T12:00:16.714Z,102929.03
2023-02-11T12:03:05.967Z,102933.44
2023-02-11T12:05:37.108Z,102938.72
2023-02-11T12:08:10.398Z,102941.34
2023-02-11T12:10:55.865Z,102942.22
2023-02-11T12:13:31.168Z,102936.97
2023-02-11T12:16:03.482Z,102940.44
2023-02-11T12:19:01.627Z,102933.44
2023-02-11T12:21:33.759Z,102929.09
2023-02-11T12:24:09.191Z,102935.22
2023-02-11T12:26:40.743Z,102942.25
2023-02-11T12:29:15.158Z,102944.88
2023-02-11T12:31:53.222Z,102937.00
2023-02-11T12:34:43.130Z,102938.75
2023-02-11T12:37:18.364Z,102930.00
2023-02-11T12:39:51.247Z,102931.78
2023-02-11T12:42:50.523Z,102931.78
2023-02-11T12:45:23.894Z,102927.41
2023-02-11T12:47:59.435Z,102933.56
2023-02-11T12:50:29.207Z,102932.66
2023-02-11T12:53:07.985Z,102930.94
2023-02-11T12:55:37.792Z,102930.94
2023-02-11T12:58:06.400Z,102925.69
2023-02-11T13:00:41.741Z,102937.06
2023-02-11T13:03:13.148Z,102930.94
2023-02-11T13:05:42.112Z,102930.91
2023-02-11T13:08:12.259Z,102942.28
2023-02-11T13:10:41.556Z,102933.53
2023-02-11T13:13:17.628Z,102938.78
2023-02-11T13:15:51.556Z,102945.81
2023-02-11T13:18:40.461Z,102960.66
2023-02-11T13:21:23.603Z,102956.28
2023-02-11T13:23:53.158Z,102947.53
2023-02-11T13:26:22.386Z,102950.19
2023-02-11T13:28:51.586Z,102949.34
2023-02-11T13:31:20.970Z,102940.59
2023-02-11T13:33:49.815Z,102934.44
2023-02-11T13:36:21.811Z,102941.44
2023-02-11T13:39:05.521Z,102947.53
2023-02-11T13:41:35.338Z,102949.28
2023-02-11T13:44:24.492Z,102956.28
2023-02-11T13:47:04.589Z,102961.50
2023-02-11T13:49:37.475Z,102971.16
2023-02-11T13:52:20.377Z,102976.38
2023-02-11T13:54:48.836Z,102974.63
2023-02-11T13:57:22.999Z,102974.66
2023-02-11T13:59:51.288Z,102986.00
2023-02-11T14:02:43.328Z,102986.00
2023-02-11T14:05:39.171Z,102998.25
2023-02-11T14:08:33.680Z,103001.72
2023-02-11T14:11:01.931Z,103000.88
2023-02-11T14:13:29.758Z,103007.00
2023-02-11T14:16:08.093Z,103001.72
2023-02-11T14:19:03.554Z,102999.97
2023-02-11T14:21:33.480Z,103002.63
2023-02-11T14:24:34.798Z,103011.41
2023-02-11T14:27:04.068Z,103017.50
2023-02-11T14:29:34.466Z,103016.66
2023-02-11T14:32:05.747Z,103014.00
2023-02-11T14:34:47.126Z,103008.75
2023-02-11T14:37:19.093Z,103010.56
2023-02-11T14:39:56.685Z,103016.66
2023-02-11T14:42:26.812Z,103021.00
2023-02-11T14:44:55.336Z,103025.38
2023-02-11T14:47:25.296Z,103029.72
2023-02-11T14:49:54.338Z,103028.84
2023-02-11T14:52:26.869Z,103027.13
2023-02-11T14:54:58.510Z,103036.72
2023-02-11T14:57:27.784Z,103039.34
2023-02-11T14:59:58.876Z,103045.50
2023-02-11T15:02:30.136Z,103038.47
2023-02-11T15:05:17.459Z,103044.63
2023-02-11T15:07:46.841Z,103048.13
2023-02-11T15:10:20.059Z,103048.97
2023-02-11T15:12:49.850Z,103043.75
2023-02-11T15:15:17.740Z,103062.13
2023-02-11T15:17:45.401Z,103068.28
2023-02-11T15:20:21.215Z,103079.66
2023-02-11T15:22:56.154Z,103087.53
2023-02-11T15:25:24.029Z,103084.06
2023-02-11T15:27:52.571Z,103086.69
2023-02-11T15:30:28.685Z,103083.19
2023-02-11T15:32:58.811Z,103070.91
2023-02-11T15:35:29.264Z,103072.66
2023-02-11T15:37:57.886Z,103065.69
2023-02-11T15:40:27.738Z,103066.53
2023-02-11T15:42:58.502Z,103070.91
2023-02-11T15:45:29.692Z,103058.63
2023-02-11T15:48:03.439Z,103062.16
2023-02-11T15:50:35.079Z,103068.31
2023-02-11T15:53:06.189Z,103069.16
2023-02-11T15:55:33.859Z,103077.03
2023-02-11T15:58:02.169Z,103080.56
2023-02-11T16:00:32.345Z,103075.28
2023-02-11T16:03:00.134Z,103078.78
2023-02-11T16:05:34.621Z,103091.06
2023-02-11T16:08:04.530Z,103084.91
2023-02-11T16:10:35.412Z,103084.06
2023-02-11T16:13:05.331Z,103097.16
2023-02-11T16:15:55.530Z,103103.28
2023-02-11T16:18:39.393Z,103100.63
2023-02-11T16:21:14.216Z,103103.25
2023-02-11T16:23:43.079Z,103111.16
2023-02-11T16:26:12.953Z,103108.47
2023-02-11T16:28:40.740Z,103106.75
2023-02-11T16:31:09.645Z,103111.97
2023-02-11T16:33:37.414Z,103104.97
2023-02-11T16:36:11.651Z,103124.22
2023-02-11T16:38:39.324Z,103126.84
2023-02-11T16:41:07.031Z,103140.88
2023-02-11T16:43:34.811Z,103131.22
2023-02-11T16:46:02.488Z,103149.63
2023-02-11T16:48:30.161Z,103157.47
2023-02-11T16:50:58.039Z,103160.09
2023-02-11T16:53:27.263Z,103164.50
2023-02-11T16:55:55.395Z,103167.13
2023-02-11T16:58:23.071Z,103172.38
2023-02-11T17:00:51.435Z,103171.53
2023-02-11T17:03:21.927Z,103175.88
2023-02-11T17:05:55.722Z,103169.78
2023-02-11T17:08:24.219Z,103168.84
2023-02-11T17:10:53.643Z,103168.88
2023-02-11T17:13:21.488Z,103170.63
2023-02-11T17:15:49.240Z,103169.75
2023-02-11T17:18:16.982Z,103174.09
2023-02-11T17:20:44.711Z,103187.22
2023-02-11T17:23:12.484Z,103183.75
2023-02-11T17:25:40.718Z,103190.75
2023-02-11T17:28:12.026Z,103190.75
2023-02-11T17:30:41.247Z,103194.22
2023-02-11T17:33:09.493Z,103204.72
2023-02-11T17:35:40.461Z,103198.63
2023-02-11T17:38:08.150Z,103198.66
2023-02-11T17:40:36.199Z,103206.56
2023-02-11T17:43:03.921Z,103212.66
2023-02-11T17:45:32.967Z,103220.53
2023-02-11T17:48:00.639Z,103214.41
2023-02-11T17:50:29.526Z,103228.41
2023-02-11T17:52:57.648Z,103221.44
2023-02-11T17:55:25.349Z,103218.81
2023-02-11T17:57:53.048Z,103225.78
2023-02-11T18:00:22.447Z,103227.50
2023-02-11T18:02:51.768Z,103228.41
2023-02-11T18:05:19.433Z,103217.06
2023-02-11T18:07:47.956Z,103220.53
2023-02-11T18:10:15.689Z,103226.69
2023-02-11T18:12:43.365Z,103238.94
2023-02-11T18:15:11.659Z,103240.63
2023-02-11T18:17:39.341Z,103245.03
2023-02-11T18:20:09.755Z,103251.13
2023-02-11T18:22:40.070Z,103261.69
2023-02-11T18:25:08.271Z,103266.06
2023-02-11T18:27:35.955Z,103273.97
2023-02-11T18:30:03.632Z,103270.47
2023-02-11T18:32:31.796Z,103270.47
2023-02-11T18:34:59.587Z,103259.13
2023-02-11T18:37:28.824Z,103259.97
2023-02-11T18:39:56.685Z,103266.13
2023-02-11T18:42:24.362Z,103266.13
2023-02-11T18:44:52.115Z,103269.66
2023-02-11T18:47:19.789Z,103270.53
2023-02-11T18:49:47.514Z,103272.28
2023-02-11T18:52:15.174Z,103270.56
2023-02-11T18:54:44.208Z,103260.88
2023-02-11T18:57:11.878Z,103253.00
2023-02-11T18:59:39.565Z,103253.00
2023-02-11T19:02:07.298Z,103259.13
2023-02-11T19:04:37.217Z,103259.06
2023-02-11T19:07:05.025Z,103273.06
2023-02-11T19:09:32.714Z,103274.81
2023-02-11T19:12:02.256Z,103283.63
2023-02-11T19:14:31.453Z,103282.75
2023-02-11T19:17:00.308Z,103281.88
2023-02-11T19:19:29.233Z,103293.28
2023-02-11T19:21:57.262Z,103289.78
2023-02-11T19:24:24.948Z,103296.78
2023-02-11T19:26:53.842Z,103291.47
2023-02-11T19:29:22.896Z,103295.88
2023-02-11T19:31:50.926Z,103301.13
2023-02-11T19:34:19.854Z,103307.25
2023-02-11T19:36:47.665Z,103309.88
2023-02-11T19:39:15.351Z,103303.72
2023-02-11T19:41:43.039Z,103301.97
2023-02-11T19:44:10.717Z,103313.31
2023-02-11T19:46:41.780Z,103310.69
2023-02-11T19:49:09.882Z,103314.25
2023-02-11T19:51:39.240Z,103323.88
2023-02-11T19:54:07.168Z,103329.13
2023-02-11T19:56:34.947Z,103324.78
2023-02-11T19:59:03.159Z,103337.91
2023-02-11T20:01:30.916Z,103335.28
2023-02-11T20:03:59.972Z,103333.50
2023-02-11T20:06:28.745Z,103338.75
2023-02-11T20:08:58.641Z,103337.84
2023-02-11T20:11:27.941Z,103329.09
2023-02-11T20:13:55.614Z,103329.06
2023-02-11T20:16:26.957Z,103322.94
2023-02-11T20:19:02.930Z,103329.09
2023-02-11T20:21:31.430Z,103328.22
2023-02-11T20:23:59.211Z,103334.34
2023-02-11T20:26:27.644Z,103339.59
2023-02-11T20:28:55.947Z,103343.09
2023-02-11T20:31:24.172Z,103337.81
2023-02-11T20:33:51.904Z,103339.59
2023-02-11T20:36:21.646Z,103343.09
2023-02-11T20:38:49.480Z,103339.63
2023-02-11T20:41:18.424Z,103344.00
2023-02-11T20:43:47.124Z,103341.38
2023-02-11T20:46:15.276Z,103344.00
2023-02-11T20:48:43.015Z,103337.94
2023-02-11T20:51:12.575Z,103337.91
2023-02-11T20:53:44.316Z,103325.63
2023-02-11T20:56:12.738Z,103324.75
2023-02-11T20:58:40.567Z,103309.88
2023-02-11T21:01:09.211Z,103318.59
2023-02-11T21:03:36.989Z,103318.59
2023-02-11T21:06:04.902Z,103323.84
2023-02-11T21:08:32.582Z,103330.88
2023-02-11T21:11:01.877Z,103336.09
2023-02-11T21:13:29.588Z,103340.44
2023-02-11T21:15:57.726Z,103344.81
2023-02-11T21:18:25.559Z,103350.06
2023-02-11T21:20:54.687Z,103360.56
2023-02-11T21:23:22.936Z,103364.94
2023-02-11T21:25:50.648Z,103366.72
2023-02-11T21:28:23.915Z,103369.41
2023-02-11T21:30:51.748Z,103372.00
2023-02-11T21:33:19.512Z,103376.34
2023-02-11T21:35:47.220Z,103377.19
2023-02-11T21:38:14.922Z,103380.66
2023-02-11T21:40:42.593Z,103392.06
2023-02-11T21:43:10.266Z,103392.91
2023-02-11T21:45:44.726Z,103399.03
2023-02-11T21:48:12.522Z,103398.16
2023-02-11T21:50:40.894Z,103402.56
2023-02-11T21:53:08.577Z,103410.47
2023-02-11T21:55:36.422Z,103411.28
2023-02-11T21:58:04.177Z,103420.03
2023-02-11T22:00:32.010Z,103415.66
2023-02-11T22:03:01.107Z,103419.16
2023-02-11T22:05:28.842Z,103434.06
2023-02-11T22:07:56.583Z,103434.06
2023-02-11T22:10:24.292Z,103441.91
2023-02-11T22:12:51.988Z,103447.16
2023-02-11T22:15:19.808Z,103446.28
2023-02-11T22:17:47.504Z,103448.03
2023-02-11T22:20:17.006Z,103446.22
2023-02-11T22:22:44.694Z,103447.97
2023-02-11T22:25:12.752Z,103449.75
2023-02-11T22:27:40.420Z,103462.03
2023-02-11T22:30:09.441Z,103471.66
2023-02-11T22:32:37.296Z,103461.09
2023-02-11T22:35:05.118Z,103461.13
2023-02-11T22:37:34.126Z,103470.75
2023-02-11T22:40:02.265Z,103473.38
2023-02-11T22:42:29.931Z,103475.13
2023-02-11T22:44:57.595Z,103476.91
2023-02-11T22:47:25.272Z,103478.63
2023-02-11T22:49:52.932Z,103487.38
2023-02-11T22:52:22.351Z,103488.22
2023-02-11T22:54:54.998Z,103490.84
2023-02-11T22:57:22.651Z,103487.38
2023-02-11T22:59:50.341Z,103490.84
2023-02-11T23:02:18.181Z,103500.47
2023-02-11T23:04:48.363Z,103503.13
2023-02-11T23:07:17.342Z,103504.03
2023-02-11T23:09:45.078Z,103508.41
2023-02-11T23:12:14.105Z,103511.03
2023-02-11T23:14:42.589Z,103514.53
2023-02-11T23:17:10.265Z,103529.38
2023-02-11T23:19:37.931Z,103528.50
2023-02-11T23:22:05.632Z,103530.28
2023-02-11T23:24:33.293Z,103537.25
2023-02-11T23:27:00.939Z,103534.63
2023-02-11T23:29:30.032Z,103539.00
2023-02-11T23:31:58.921Z,103541.66
2023-02-11T23:34:26.804Z,103546.06
2023-02-11T23:36:54.478Z,103550.44
2023-02-11T23:39:22.144Z,103554.84
2023-02-11T23:41:49.812Z,103558.31
2023-02-11T23:44:17.471Z,103562.69
2023-02-11T23:46:46.488Z,103556.53
2023-02-11T23:49:15.457Z,103558.28
2023-02-11T23:51:43.180Z,103549.50
2023-02-11T23:54:11.641Z,103555.66
2023-02-11T23:56:39.304Z,103560.06
2023-02-11T23:59:07.145Z,103572.31
